Time;durP1;ratioP1;P1;durP2;ratioP2;P2;SDS_P1;SDS_P2;PMS_P1;PMS_P2;Temp;Humidity;BMP_temperature;BMP_pressure;BME280_temperature;BME280_humidity;BME280_pressure;Samples;Min_cycle;Max_cycle;Signal;HPM_P1;HPM_P2
2022/06/13 00:00:55;;;;;;;4.47;0.85;;;;;;;;;;5043489;28;20037;-77
2022/06/13 00:03:21;;;;;;;2.55;0.80;;;;;;;;;;5040659;28;20365;-78
2022/06/13 00:05:47;;;;;;;4.78;0.80;;;;;;;;;;5046110;28;20033;-77
2022/06/13 00:08:13;;;;;;;3.75;1.20;;;;;;;;;;5031323;28;20037;-77
2022/06/13 00:10:39;;;;;;;3.78;0.95;;;;;;;;;;5033520;28;20486;-77
2022/06/13 00:13:05;;;;;;;4.57;1.13;;;;;;;;;;5031763;28;20034;-78
2022/06/13 00:15:31;;;;;;;4.63;1.30;;;;;;;;;;5033867;28;20712;-78
2022/06/13 00:17:57;;;;;;;3.58;0.93;;;;;;;;;;5037801;28;20061;-77
2022/06/13 00:20:23;;;;;;;4.38;0.90;;;;;;;;;;5030662;28;20029;-77
2022/06/13 00:22:49;;;;;;;4.05;1.00;;;;;;;;;;5041574;28;20120;-78
2022/06/13 00:25:16;;;;;;;4.53;0.98;;;;;;;;;;5035141;28;20033;-77
2022/06/13 00:27:42;;;;;;;3.53;1.10;;;;;;;;;;5041897;28;20033;-77
2022/06/13 00:30:09;;;;;;;4.13;0.70;;;;;;;;;;5036587;28;20057;-77
2022/06/13 00:32:35;;;;;;;2.45;0.80;;;;;;;;;;5031249;28;20475;-77
2022/06/13 00:35:01;;;;;;;3.95;0.90;;;;;;;;;;5032422;28;20144;-77
2022/06/13 00:37:28;;;;;;;4.30;1.23;;;;;;;;;;5049661;28;20036;-77
2022/06/13 00:39:54;;;;;;;3.17;1.10;;;;;;;;;;5043352;28;20037;-77
2022/06/13 00:42:21;;;;;;;3.47;0.85;;;;;;;;;;5040368;28;20042;-77
2022/06/13 00:45:06;;;;;;;4.20;1.20;;;;;;;;;;5031070;28;20041;-77
2022/06/13 00:47:32;;;;;;;2.67;1.00;;;;;;;;;;5033335;28;20603;-77
2022/06/13 00:49:59;;;;;;;3.70;0.98;;;;;;;;;;5037733;28;20359;-77
2022/06/13 00:52:30;;;;;;;3.08;0.82;;;;;;;;;;5030736;28;20099;-77
2022/06/13 00:54:56;;;;;;;2.27;0.90;;;;;;;;;;5039522;28;20048;-78
2022/06/13 00:57:26;;;;;;;3.40;1.15;;;;;;;;;;5041782;28;20043;-77
2022/06/13 00:59:55;;;;;;;3.88;1.20;;;;;;;;;;5033493;28;20030;-77
2022/06/13 01:02:21;;;;;;;2.38;0.90;;;;;;;;;;5039079;28;20044;-77
2022/06/13 01:04:49;;;;;;;5.00;1.08;;;;;;;;;;5035191;28;20100;-77
2022/06/13 01:07:15;;;;;;;2.45;0.60;;;;;;;;;;5033806;28;20037;-77
2022/06/13 01:12:29;;;;;;;2.50;0.80;;;;;;;;;;5030230;28;20748;-77
2022/06/13 01:15:13;;;;;;;6.13;1.42;;;;;;;;;;5035235;28;20060;-77
2022/06/13 01:17:58;;;;;;;4.22;0.80;;;;;;;;;;5033099;28;20037;-78
2022/06/13 01:20:41;;;;;;;4.82;1.13;;;;;;;;;;5037609;28;20128;-78
2022/06/13 01:23:26;;;;;;;3.92;1.00;;;;;;;;;;5031211;28;20711;-77
2022/06/13 01:25:52;;;;;;;6.50;1.52;;;;;;;;;;5037676;28;20022;-77
2022/06/13 01:28:47;;;;;;;3.40;0.90;;;;;;;;;;5036815;28;20078;-77
2022/06/13 01:31:13;;;;;;;2.88;0.73;;;;;;;;;;4999202;28;20126;-78
2022/06/13 01:33:46;;;;;;;4.60;0.70;;;;;;;;;;5041932;28;20388;-77
2022/06/13 01:36:16;;;;;;;4.68;0.90;;;;;;;;;;5034574;28;20090;-78
2022/06/13 01:38:51;;;;;;;2.00;0.80;;;;;;;;;;5036559;28;20036;-77
2022/06/13 01:41:24;;;;;;;1.85;0.95;;;;;;;;;;5030774;28;20041;-77
2022/06/13 01:43:50;;;;;;;5.05;1.20;;;;;;;;;;5039162;28;20041;-77
2022/06/13 01:46:19;;;;;;;4.68;1.00;;;;;;;;;;5035972;28;20040;-77
2022/06/13 01:48:48;;;;;;;3.92;1.20;;;;;;;;;;5039939;28;20111;-77
2022/06/13 01:51:41;;;;;;;6.70;1.63;;;;;;;;;;5033535;28;20474;-77
2022/06/13 01:54:20;;;;;;;4.10;1.13;;;;;;;;;;5024777;28;20471;-77
2022/06/13 01:56:49;;;;;;;4.00;0.85;;;;;;;;;;5032386;28;20044;-77
2022/06/13 01:59:15;;;;;;;3.70;1.20;;;;;;;;;;5030528;28;20151;-77
2022/06/13 02:01:41;;;;;;;3.17;1.13;;;;;;;;;;5039621;28;20112;-77
2022/06/13 02:04:16;;;;;;;3.08;0.98;;;;;;;;;;5036567;28;20029;-77
2022/06/13 02:06:45;;;;;;;3.20;1.00;;;;;;;;;;5036670;28;20030;-77
2022/06/13 02:09:14;;;;;;;6.47;0.90;;;;;;;;;;5045276;28;20143;-77
2022/06/13 02:11:51;;;;;;;2.60;0.80;;;;;;;;;;5034443;28;20391;-77
2022/06/13 02:14:26;;;;;;;3.75;1.05;;;;;;;;;;5029689;28;20040;-77
2022/06/13 02:17:05;;;;;;;3.40;0.80;;;;;;;;;;5028583;28;20100;-77
2022/06/13 02:19:38;;;;;;;3.97;1.17;;;;;;;;;;5045809;28;20060;-77
2022/06/13 02:22:16;;;;;;;3.13;1.00;;;;;;;;;;5043164;28;20402;-77
2022/06/13 02:24:49;;;;;;;3.90;1.30;;;;;;;;;;5036414;28;20040;-77
2022/06/13 02:27:16;;;;;;;3.88;0.80;;;;;;;;;;5032727;28;20079;-77
2022/06/13 02:29:46;;;;;;;5.45;1.05;;;;;;;;;;5036448;28;20050;-77
2022/06/13 02:32:14;;;;;;;4.80;0.70;;;;;;;;;;5033508;28;20079;-77
2022/06/13 02:34:45;;;;;;;3.88;0.90;;;;;;;;;;5044043;28;20033;-77
2022/06/13 02:37:11;;;;;;;3.05;0.88;;;;;;;;;;5040099;28;20033;-77
2022/06/13 02:39:44;;;;;;;3.58;1.00;;;;;;;;;;5047466;28;20037;-77
2022/06/13 02:42:12;;;;;;;5.47;1.23;;;;;;;;;;5039314;28;20510;-77
2022/06/13 02:44:43;;;;;;;4.25;0.93;;;;;;;;;;5037884;28;20038;-77
2022/06/13 02:47:13;;;;;;;5.53;0.90;;;;;;;;;;5033541;28;20108;-77
2022/06/13 02:49:45;;;;;;;3.38;0.80;;;;;;;;;;5038757;28;20104;-77
2022/06/13 02:52:29;;;;;;;7.55;1.13;;;;;;;;;;5044061;28;20065;-77
2022/06/13 02:54:57;;;;;;;5.60;0.82;;;;;;;;;;5043536;28;20463;-77
2022/06/13 02:57:39;;;;;;;3.92;1.00;;;;;;;;;;5045177;28;20382;-77
2022/06/13 03:00:05;;;;;;;;;;;;;;;;;;5038494;28;20034;-77
2022/06/13 03:02:39;;;;;;;3.33;0.93;;;;;;;;;;5033631;28;19938;-77
2022/06/13 03:05:13;;;;;;;3.10;0.80;;;;;;;;;;5037713;28;20033;-77
2022/06/13 03:07:42;;;;;;;6.25;0.90;;;;;;;;;;5033031;28;20052;-77
2022/06/13 03:10:13;;;;;;;6.90;1.20;;;;;;;;;;5041375;28;20588;-77
2022/06/13 03:12:42;;;;;;;5.05;0.80;;;;;;;;;;5032224;28;20057;-77
2022/06/13 03:15:14;;;;;;;2.42;1.00;;;;;;;;;;5038528;28;20024;-77
2022/06/13 03:17:45;;;;;;;3.92;1.23;;;;;;;;;;5033057;28;20033;-77
2022/06/13 03:20:14;;;;;;;4.45;1.10;;;;;;;;;;5044532;28;20029;-77
2022/06/13 03:22:43;;;;;;;5.72;1.00;;;;;;;;;;5037556;28;20039;-77
2022/06/13 03:25:14;;;;;;;5.28;1.10;;;;;;;;;;5039073;28;20025;-78
2022/06/13 03:27:46;;;;;;;3.57;1.50;;;;;;;;;;5044033;28;20104;-77
2022/06/13 03:30:14;;;;;;;2.58;0.80;;;;;;;;;;5033226;28;20057;-77
2022/06/13 03:32:42;;;;;;;3.88;1.30;;;;;;;;;;5041867;28;20084;-77
2022/06/13 03:35:12;;;;;;;5.20;1.08;;;;;;;;;;5031293;28;20038;-77
2022/06/13 03:37:42;;;;;;;6.22;1.00;;;;;;;;;;5040790;28;20037;-77
2022/06/13 03:40:15;;;;;;;3.53;1.10;;;;;;;;;;5042043;28;20045;-77
2022/06/13 03:42:56;;;;;;;5.30;0.90;;;;;;;;;;5041796;28;20081;-77
2022/06/13 03:45:25;;;;;;;5.53;1.35;;;;;;;;;;5036210;28;20037;-77
2022/06/13 03:48:12;;;;;;;5.88;1.00;;;;;;;;;;5040231;28;20101;-77
2022/06/13 03:50:57;;;;;;;4.07;1.02;;;;;;;;;;5034880;28;20044;-77
2022/06/13 03:53:26;;;;;;;8.32;1.50;;;;;;;;;;5031675;28;20029;-77
2022/06/13 03:55:55;;;;;;;4.25;1.00;;;;;;;;;;5035421;28;20095;-77
2022/06/13 03:58:25;;;;;;;5.32;1.30;;;;;;;;;;5031542;28;20036;-77
2022/06/13 04:00:57;;;;;;;4.78;1.08;;;;;;;;;;5031117;28;20041;-77
2022/06/13 04:03:24;;;;;;;6.82;1.00;;;;;;;;;;5035876;28;20106;-78
2022/06/13 04:05:56;;;;;;;5.05;1.88;;;;;;;;;;5041502;28;20038;-77
2022/06/13 04:08:22;;;;;;;;;;;;;;;;;;5032773;28;20033;-77
2022/06/13 04:11:06;;;;;;;7.30;1.50;;;;;;;;;;5045037;28;19917;-77
2022/06/13 04:13:32;;;;;;;3.80;0.93;;;;;;;;;;5038822;28;20187;-77
2022/06/13 04:16:05;;;;;;;6.13;1.27;;;;;;;;;;5037731;28;20052;-77
2022/06/13 04:18:37;;;;;;;6.90;1.52;;;;;;;;;;5039594;28;20054;-77
2022/06/13 04:21:11;;;;;;;5.05;1.58;;;;;;;;;;5041791;28;20037;-77
2022/06/13 04:24:00;;;;;;;7.65;1.30;;;;;;;;;;5047508;28;20420;-77
2022/06/13 04:26:41;;;;;;;8.20;1.20;;;;;;;;;;5034806;28;20061;-77
2022/06/13 04:29:21;;;;;;;5.95;1.67;;;;;;;;;;5030834;28;20065;-77
2022/06/13 04:31:48;;;;;;;7.03;1.48;;;;;;;;;;5029735;28;20068;-78
2022/06/13 04:34:23;;;;;;;5.63;1.13;;;;;;;;;;5033741;28;20044;-77
2022/06/13 04:36:50;;;;;;;6.93;1.60;;;;;;;;;;5045419;28;20033;-77
2022/06/13 04:39:19;;;;;;;4.15;1.20;;;;;;;;;;5034225;28;20094;-77
2022/06/13 04:41:45;;;;;;;4.78;1.63;;;;;;;;;;5045902;28;20374;-77
2022/06/13 04:44:18;;;;;;;3.95;1.27;;;;;;;;;;5049815;28;20052;-77
2022/06/13 04:46:44;;;;;;;6.72;1.20;;;;;;;;;;5036879;28;20040;-77
2022/06/13 04:49:31;;;;;;;2.40;0.98;;;;;;;;;;5041293;28;20686;-77
2022/06/13 04:51:59;;;;;;;2.80;0.90;;;;;;;;;;5031181;28;20041;-77
2022/06/13 04:54:25;;;;;;;4.57;1.02;;;;;;;;;;5038200;28;20140;-77
2022/06/13 04:56:53;;;;;;;4.97;1.20;;;;;;;;;;5034080;28;20140;-77
2022/06/13 04:59:19;;;;;;;6.15;1.35;;;;;;;;;;5036156;28;20033;-77
2022/06/13 05:01:47;;;;;;;7.97;1.70;;;;;;;;;;5031197;28;20051;-77
2022/06/13 05:04:14;;;;;;;10.73;1.90;;;;;;;;;;5036340;28;20493;-77
2022/06/13 05:06:43;;;;;;;8.45;1.30;;;;;;;;;;5032161;28;20037;-77
2022/06/13 05:09:12;;;;;;;6.78;1.38;;;;;;;;;;5036002;28;20053;-77
2022/06/13 05:11:47;;;;;;;7.22;1.50;;;;;;;;;;5037359;28;20029;-77
2022/06/13 05:14:19;;;;;;;6.82;2.10;;;;;;;;;;5040407;28;20116;-77
2022/06/13 05:16:51;;;;;;;6.43;1.73;;;;;;;;;;5032859;28;20041;-77
2022/06/13 05:19:17;;;;;;;;;;;;;;;;;;5030589;28;20115;-78
2022/06/13 05:21:51;;;;;;;9.48;2.70;;;;;;;;;;5046132;28;19974;-77
2022/06/13 05:24:36;;;;;;;11.90;2.70;;;;;;;;;;5033602;28;20041;-77
2022/06/13 05:27:06;;;;;;;5.78;1.95;;;;;;;;;;5032124;28;20030;-77
2022/06/13 05:29:32;;;;;;;8.30;1.90;;;;;;;;;;5033079;28;20068;-78
2022/06/13 05:31:58;;;;;;;7.32;1.85;;;;;;;;;;5030858;28;20730;-77
2022/06/13 05:34:28;;;;;;;6.88;2.20;;;;;;;;;;5032621;28;20043;-77
2022/06/13 05:36:54;;;;;;;7.45;1.65;;;;;;;;;;5048568;28;20041;-77
2022/06/13 05:39:20;;;;;;;4.38;1.27;;;;;;;;;;5034528;28;20068;-77
2022/06/13 05:41:46;;;;;;;8.27;1.60;;;;;;;;;;5039234;28;20061;-77
2022/06/13 05:44:12;;;;;;;6.90;1.48;;;;;;;;;;5029514;28;20503;-78
2022/06/13 05:46:39;;;;;;;7.45;1.45;;;;;;;;;;5047632;28;20032;-77
2022/06/13 05:49:05;;;;;;;5.35;1.20;;;;;;;;;;5030167;28;20025;-77
2022/06/13 05:51:32;;;;;;;8.00;1.25;;;;;;;;;;5034409;28;20036;-78
2022/06/13 05:53:58;;;;;;;8.48;1.60;;;;;;;;;;5028203;28;20489;-78
2022/06/13 05:56:25;;;;;;;8.27;1.00;;;;;;;;;;5034688;28;20061;-77
2022/06/13 05:58:51;;;;;;;4.10;1.00;;;;;;;;;;5036682;28;20041;-78
2022/06/13 06:01:17;;;;;;;4.20;0.90;;;;;;;;;;5036393;28;20041;-78
2022/06/13 06:03:47;;;;;;;4.85;1.10;;;;;;;;;;5034338;28;20113;-78
2022/06/13 06:06:33;;;;;;;6.97;1.30;;;;;;;;;;5037014;28;20033;-77
2022/06/13 06:08:59;;;;;;;4.10;1.00;;;;;;;;;;5035858;28;20038;-78
2022/06/13 06:11:27;;;;;;;2.92;0.77;;;;;;;;;;5032094;28;20702;-79
2022/06/13 06:13:53;;;;;;;6.18;1.27;;;;;;;;;;5035044;28;20037;-78
2022/06/13 06:16:20;;;;;;;5.35;1.27;;;;;;;;;;5035153;28;20122;-79
2022/06/13 06:18:46;;;;;;;8.95;1.85;;;;;;;;;;5032615;28;20042;-79
2022/06/13 06:21:13;;;;;;;8.30;2.25;;;;;;;;;;5038738;28;20068;-79
2022/06/13 06:23:39;;;;;;;10.82;2.45;;;;;;;;;;5040805;28;20080;-79
2022/06/13 06:26:05;;;;;;;9.57;2.40;;;;;;;;;;5033947;28;20026;-79
2022/06/13 06:28:32;;;;;;;9.13;2.83;;;;;;;;;;5034676;28;20405;-78
2022/06/13 06:30:58;;;;;;;9.20;2.30;;;;;;;;;;5028768;28;20041;-79
2022/06/13 06:33:25;;;;;;;9.80;2.20;;;;;;;;;;5031713;28;20042;-78
2022/06/13 06:35:51;;;;;;;7.88;1.88;;;;;;;;;;5029891;28;20045;-78
2022/06/13 06:38:18;;;;;;;7.63;2.50;;;;;;;;;;5030123;28;20041;-78
2022/06/13 06:40:44;;;;;;;9.15;2.35;;;;;;;;;;5037834;28;20037;-79
2022/06/13 06:43:10;;;;;;;9.23;2.40;;;;;;;;;;5038061;28;20033;-78
2022/06/13 06:45:37;;;;;;;9.98;1.80;;;;;;;;;;5045764;28;20033;-79
2022/06/13 06:48:03;;;;;;;6.65;1.50;;;;;;;;;;5033944;28;20022;-79
2022/06/13 06:50:30;;;;;;;7.63;1.63;;;;;;;;;;5036497;28;20100;-79
2022/06/13 06:52:56;;;;;;;6.32;0.98;;;;;;;;;;5032544;28;20044;-79
2022/06/13 07:00:55;;;;;;;3.38;1.27;;;;;;;;;;5035267;28;20041;-79
2022/06/13 07:03:21;;;;;;;5.93;1.00;;;;;;;;;;5034808;28;20033;-79
2022/06/13 07:05:47;;;;;;;6.70;1.50;;;;;;;;;;5040601;28;20409;-79
2022/06/13 07:08:14;;;;;;;5.20;1.00;;;;;;;;;;5034548;28;20577;-78
2022/06/13 07:10:40;;;;;;;5.65;1.30;;;;;;;;;;5038778;28;20033;-79
2022/06/13 07:13:06;;;;;;;5.40;1.70;;;;;;;;;;5037352;28;20120;-79
2022/06/13 07:15:32;;;;;;;7.90;1.73;;;;;;;;;;5042646;28;20040;-78
2022/06/13 07:17:58;;;;;;;4.30;1.38;;;;;;;;;;5043868;28;20037;-79
2022/06/13 07:20:24;;;;;;;4.25;1.30;;;;;;;;;;5044502;28;20056;-79
2022/06/13 07:22:51;;;;;;;3.90;1.00;;;;;;;;;;5043899;28;20029;-78
2022/06/13 07:25:19;;;;;;;2.22;0.80;;;;;;;;;;5038425;28;20033;-78
2022/06/13 07:27:45;;;;;;;2.70;1.10;;;;;;;;;;5030656;28;20521;-79
2022/06/13 07:30:12;;;;;;;7.65;1.50;;;;;;;;;;5041280;28;20049;-79
2022/06/13 07:32:39;;;;;;;6.53;1.35;;;;;;;;;;5038620;28;20180;-79
2022/06/13 07:35:05;;;;;;;3.25;1.42;;;;;;;;;;5037814;28;20080;-79
2022/06/13 07:40:16;;;;;;;4.47;1.23;;;;;;;;;;5034019;28;20507;-79
2022/06/13 07:42:44;;;;;;;4.57;1.00;;;;;;;;;;5037616;28;20029;-79
2022/06/13 07:45:12;;;;;;;4.80;1.30;;;;;;;;;;5033763;28;20105;-78
2022/06/13 07:47:39;;;;;;;4.47;0.80;;;;;;;;;;5036493;28;20786;-79
2022/06/13 07:50:06;;;;;;;3.95;0.80;;;;;;;;;;5039132;28;20025;-78
2022/06/13 07:52:32;;;;;;;5.40;0.93;;;;;;;;;;5035601;28;20477;-79
2022/06/13 07:54:58;;;;;;;4.75;0.90;;;;;;;;;;5036416;28;20064;-79
2022/06/13 07:57:24;;;;;;;2.45;0.90;;;;;;;;;;5040144;28;20148;-79
2022/06/13 07:59:50;;;;;;;3.85;1.15;;;;;;;;;;5039744;28;20040;-78
2022/06/13 08:02:18;;;;;;;4.75;1.00;;;;;;;;;;5039557;28;20040;-79
2022/06/13 08:04:44;;;;;;;6.00;1.20;;;;;;;;;;5035341;28;20463;-79
2022/06/13 08:07:11;;;;;;;6.45;1.38;;;;;;;;;;5042560;28;20115;-79
2022/06/13 08:09:38;;;;;;;7.13;1.90;;;;;;;;;;5042465;28;20787;-79
2022/06/13 08:12:06;;;;;;;7.97;1.70;;;;;;;;;;5044261;28;20040;-79
2022/06/13 08:14:32;;;;;;;7.90;1.40;;;;;;;;;;5036647;28;20030;-79
2022/06/13 08:16:58;;;;;;;5.32;1.33;;;;;;;;;;5033845;28;20041;-79
2022/06/13 08:19:24;;;;;;;7.28;1.52;;;;;;;;;;5033466;28;20037;-79
2022/06/13 08:21:51;;;;;;;3.92;1.27;;;;;;;;;;5038965;28;20120;-79
2022/06/13 08:24:17;;;;;;;5.55;1.40;;;;;;;;;;5036885;28;20057;-79
2022/06/13 08:26:43;;;;;;;6.70;1.13;;;;;;;;;;5036697;28;20037;-79
2022/06/13 08:29:10;;;;;;;8.00;1.38;;;;;;;;;;5039053;28;20963;-79
2022/06/13 08:31:36;;;;;;;7.57;1.65;;;;;;;;;;5038124;28;20107;-79
2022/06/13 08:34:04;;;;;;;4.97;1.15;;;;;;;;;;5038126;28;20031;-79
2022/06/13 08:36:30;;;;;;;4.88;1.55;;;;;;;;;;5037667;28;20045;-79
2022/06/13 08:38:56;;;;;;;7.57;1.20;;;;;;;;;;5039079;28;20036;-79
2022/06/13 08:41:22;;;;;;;2.65;1.08;;;;;;;;;;5039305;28;20485;-79
2022/06/13 08:44:07;;;;;;;3.55;0.90;;;;;;;;;;5035185;28;20030;-79
2022/06/13 08:46:39;;;;;;;7.40;1.45;;;;;;;;;;5034093;28;20057;-80
2022/06/13 08:49:05;;;;;;;;;;;;;;;;;;5061243;23;20095;-79
2022/06/13 08:51:40;;;;;;;2.70;0.93;;;;;;;;;;5042397;28;19947;-79
2022/06/13 08:54:08;;;;;;;4.45;1.17;;;;;;;;;;5041242;28;20033;-80
2022/06/13 08:56:35;;;;;;;7.13;1.20;;;;;;;;;;5039189;28;20064;-79
2022/06/13 08:59:22;;;;;;;6.75;1.35;;;;;;;;;;5045927;28;20025;-79
2022/06/13 09:01:50;;;;;;;5.22;1.05;;;;;;;;;;5041107;28;20021;-79
2022/06/13 09:04:20;;;;;;;5.82;1.08;;;;;;;;;;5043584;28;20043;-79
2022/06/13 09:07:09;;;;;;;4.18;1.13;;;;;;;;;;5043734;28;20026;-79
2022/06/13 09:09:43;;;;;;;7.55;1.48;;;;;;;;;;5033476;28;20041;-79
2022/06/13 09:12:12;;;;;;;6.78;1.50;;;;;;;;;;5034939;28;20099;-79
2022/06/13 09:14:43;;;;;;;4.18;1.20;;;;;;;;;;5047515;28;20067;-79
2022/06/13 09:17:16;;;;;;;3.17;1.25;;;;;;;;;;5037649;28;20026;-79
2022/06/13 09:19:45;;;;;;;4.90;1.20;;;;;;;;;;5039407;28;20050;-79
2022/06/13 09:22:17;;;;;;;4.80;1.27;;;;;;;;;;5042872;28;20421;-79
2022/06/13 09:25:02;;;;;;;6.78;1.00;;;;;;;;;;5037904;28;20107;-78
2022/06/13 09:27:53;;;;;;;13.90;1.55;;;;;;;;;;5036724;28;20040;-79
2022/06/13 09:30:23;;;;;;;7.60;1.27;;;;;;;;;;5015109;28;20636;-79
2022/06/13 09:32:54;;;;;;;9.70;1.25;;;;;;;;;;5025311;28;20092;-79
2022/06/13 09:35:25;;;;;;;5.75;1.23;;;;;;;;;;5022497;28;20037;-79
2022/06/13 09:37:56;;;;;;;6.43;1.10;;;;;;;;;;5028406;28;20471;-79
2022/06/13 09:40:37;;;;;;;2.97;1.00;;;;;;;;;;5028702;28;20037;-79
2022/06/13 09:43:09;;;;;;;5.30;1.30;;;;;;;;;;5020932;28;20069;-79
2022/06/13 09:45:35;;;;;;;;;;;;;;;;;;5026898;28;20797;-79
2022/06/13 09:48:04;;;;;;;4.72;1.20;;;;;;;;;;5017703;28;19918;-79
2022/06/13 09:50:43;;;;;;;5.03;0.93;;;;;;;;;;5022685;28;20041;-79
2022/06/13 09:53:09;;;;;;;4.68;0.82;;;;;;;;;;5025838;28;20029;-79
2022/06/13 09:55:44;;;;;;;2.50;0.80;;;;;;;;;;5020408;28;20479;-79
2022/06/13 09:58:20;;;;;;;3.85;1.02;;;;;;;;;;5021859;28;20029;-79
2022/06/13 10:00:49;;;;;;;4.25;0.93;;;;;;;;;;5021280;28;20088;-79
2022/06/13 10:03:18;;;;;;;4.20;1.00;;;;;;;;;;5017039;28;20124;-80
2022/06/13 10:05:53;;;;;;;8.52;1.00;;;;;;;;;;5015335;28;20403;-78
2022/06/13 10:08:38;;;;;;;5.28;0.85;;;;;;;;;;5021505;28;20037;-78
2022/06/13 10:11:42;;;;;;;3.88;1.00;;;;;;;;;;5020746;28;20033;-80
2022/06/13 10:14:08;;;;;;;3.60;1.15;;;;;;;;;;4986538;28;20068;-79
2022/06/13 10:16:53;;;;;;;4.55;1.00;;;;;;;;;;4986482;28;20026;-78
2022/06/13 10:19:25;;;;;;;4.07;1.30;;;;;;;;;;5007408;28;20726;-78
2022/06/13 10:21:55;;;;;;;5.13;1.17;;;;;;;;;;5025310;28;20476;-78
2022/06/13 10:24:24;;;;;;;3.17;0.90;;;;;;;;;;5019925;28;20120;-78
2022/06/13 10:27:02;;;;;;;4.75;1.23;;;;;;;;;;5027790;28;20021;-78
2022/06/13 10:29:28;;;;;;;5.85;0.82;;;;;;;;;;5017110;28;20042;-77
2022/06/13 10:32:15;;;;;;;3.15;0.98;;;;;;;;;;5021587;28;20423;-81
2022/06/13 10:34:47;;;;;;;3.80;1.13;;;;;;;;;;5016040;28;20042;-81
2022/06/13 10:37:13;;;;;;;5.07;1.08;;;;;;;;;;5017676;28;20040;-74
2022/06/13 10:39:40;;;;;;;4.68;1.15;;;;;;;;;;5018115;28;20422;-79
2022/06/13 10:42:07;;;;;;;3.63;1.00;;;;;;;;;;5016839;28;20088;-78
2022/06/13 10:44:34;;;;;;;6.85;1.60;;;;;;;;;;5022678;28;20117;-78
2022/06/13 10:47:23;;;;;;;5.03;1.17;;;;;;;;;;5027858;28;20026;-79
2022/06/13 10:50:01;;;;;;;8.48;1.20;;;;;;;;;;5013076;28;20053;-78
2022/06/13 10:52:31;;;;;;;3.80;1.02;;;;;;;;;;5030606;28;20033;-79
2022/06/13 10:55:03;;;;;;;6.07;1.30;;;;;;;;;;5027668;28;20095;-78
2022/06/13 10:57:32;;;;;;;5.72;1.10;;;;;;;;;;5025793;28;20034;-79
2022/06/13 11:00:08;;;;;;;3.65;1.00;;;;;;;;;;5020172;28;20052;-78
2022/06/13 11:02:34;;;;;;;5.80;1.05;;;;;;;;;;5024947;28;20037;-79
2022/06/13 11:05:26;;;;;;;3.50;1.02;;;;;;;;;;5028502;28;20386;-78
2022/06/13 11:07:55;;;;;;;4.07;1.10;;;;;;;;;;5021247;28;20064;-78
2022/06/13 11:10:39;;;;;;;4.65;1.10;;;;;;;;;;5023825;28;20393;-78
2022/06/13 11:13:15;;;;;;;7.28;1.35;;;;;;;;;;5027996;28;20038;-79
2022/06/13 11:24:11;;;;;;;6.00;1.05;;;;;;;;;;5025906;28;20048;-78
2022/06/13 11:29:23;;;;;;;5.07;1.48;;;;;;;;;;5021943;28;20128;-78
2022/06/13 11:31:50;;;;;;;6.15;1.40;;;;;;;;;;5022996;28;20038;-78
2022/06/13 11:34:25;;;;;;;5.07;1.25;;;;;;;;;;5019762;28;20044;-78
2022/06/13 11:37:03;;;;;;;8.40;1.23;;;;;;;;;;5020072;28;20026;-79
2022/06/13 11:39:38;;;;;;;7.03;1.23;;;;;;;;;;5023419;28;20518;-78
2022/06/13 11:42:05;;;;;;;6.13;1.50;;;;;;;;;;5022678;28;20048;-78
2022/06/13 11:44:31;;;;;;;11.07;1.58;;;;;;;;;;5027420;28;20037;-78
2022/06/13 11:47:00;;;;;;;4.28;1.10;;;;;;;;;;5026760;28;20859;-78
2022/06/13 11:49:26;;;;;;;5.45;1.50;;;;;;;;;;5028553;28;20069;-78
2022/06/13 11:55:23;;;;;;;6.20;1.60;;;;;;;;;;4988224;28;20061;-78
2022/06/13 11:57:53;;;;;;;5.15;1.70;;;;;;;;;;5022365;28;20045;-78
2022/06/13 12:00:19;;;;;;;9.23;1.60;;;;;;;;;;5030449;28;20541;-78
2022/06/13 12:02:48;;;;;;;3.78;1.15;;;;;;;;;;5027751;28;20033;-78
2022/06/13 12:05:31;;;;;;;4.90;1.17;;;;;;;;;;5019872;28;20061;-78
2022/06/13 12:08:03;;;;;;;3.63;1.30;;;;;;;;;;5026339;28;20562;-78
2022/06/13 12:10:31;;;;;;;5.75;1.10;;;;;;;;;;5021085;28;20232;-77
2022/06/13 12:12:57;;;;;;;4.05;1.00;;;;;;;;;;5028136;28;20032;-77
2022/06/13 12:15:27;;;;;;;5.10;1.20;;;;;;;;;;5022535;28;20485;-78
2022/06/13 12:17:56;;;;;;;5.30;1.25;;;;;;;;;;5020736;28;20487;-78
2022/06/13 12:20:29;;;;;;;4.07;1.10;;;;;;;;;;5018618;28;20478;-78
2022/06/13 12:23:05;;;;;;;4.53;1.00;;;;;;;;;;5021560;28;20672;-78
2022/06/13 12:25:34;;;;;;;3.67;1.00;;;;;;;;;;5023109;28;20699;-77
2022/06/13 12:28:05;;;;;;;4.70;1.30;;;;;;;;;;5023982;28;20098;-78
2022/06/13 12:30:45;;;;;;;4.80;1.40;;;;;;;;;;5024239;28;20057;-78
2022/06/13 12:33:16;;;;;;;6.15;1.30;;;;;;;;;;5021352;28;20111;-78
2022/06/13 12:35:53;;;;;;;10.80;1.27;;;;;;;;;;5027808;28;20041;-77
2022/06/13 12:38:22;;;;;;;4.72;1.40;;;;;;;;;;5021184;28;20629;-78
2022/06/13 12:40:49;;;;;;;5.55;1.00;;;;;;;;;;5025497;28;20033;-77
2022/06/13 12:43:15;;;;;;;5.10;1.40;;;;;;;;;;5023518;28;20038;-77
2022/06/13 12:45:41;;;;;;;4.53;1.08;;;;;;;;;;5020355;28;20028;-77
2022/06/13 12:48:07;;;;;;;5.13;1.70;;;;;;;;;;5025538;28;20849;-78
2022/06/13 12:50:39;;;;;;;8.25;1.20;;;;;;;;;;5023760;28;20046;-77
2022/06/13 12:53:16;;;;;;;8.02;1.25;;;;;;;;;;5024438;28;20041;-77
2022/06/13 12:56:02;;;;;;;4.45;1.33;;;;;;;;;;5028085;28;20116;-77
2022/06/13 12:58:44;;;;;;;5.22;1.20;;;;;;;;;;5027439;28;20034;-77
2022/06/13 13:01:17;;;;;;;6.32;1.17;;;;;;;;;;5024234;28;20075;-78
2022/06/13 13:03:43;;;;;;;5.78;1.30;;;;;;;;;;5018744;28;20111;-78
2022/06/13 13:06:09;;;;;;;4.43;1.27;;;;;;;;;;5020000;28;20025;-78
2022/06/13 13:08:35;;;;;;;4.47;1.20;;;;;;;;;;5017386;28;20034;-78
2022/06/13 13:11:21;;;;;;;7.47;1.42;;;;;;;;;;5021865;28;20026;-77
2022/06/13 13:14:06;;;;;;;6.25;1.63;;;;;;;;;;5016004;28;20971;-78
2022/06/13 13:16:44;;;;;;;4.30;1.13;;;;;;;;;;5024988;28;20073;-78
2022/06/13 13:19:28;;;;;;;4.70;1.20;;;;;;;;;;5021094;28;20033;-78
2022/06/13 13:22:06;;;;;;;4.63;1.33;;;;;;;;;;5021646;28;20040;-78
2022/06/13 13:24:38;;;;;;;4.82;1.30;;;;;;;;;;5024123;28;20721;-78
2022/06/13 13:27:06;;;;;;;8.20;1.20;;;;;;;;;;5018834;28;20064;-78
2022/06/13 13:29:43;;;;;;;5.32;1.23;;;;;;;;;;5021156;28;20026;-78
2022/06/13 13:32:30;;;;;;;4.80;1.50;;;;;;;;;;5028043;28;20025;-78
2022/06/13 13:34:56;;;;;;;6.05;1.40;;;;;;;;;;5020087;28;20037;-78
2022/06/13 13:37:30;;;;;;;7.25;1.27;;;;;;;;;;5016652;28;20107;-78
2022/06/13 13:40:09;;;;;;;6.75;1.50;;;;;;;;;;5019304;28;20052;-78
2022/06/13 13:43:03;;;;;;;4.25;1.20;;;;;;;;;;5018491;28;20038;-78
2022/06/13 13:45:33;;;;;;;6.00;1.13;;;;;;;;;;5013564;28;20762;-78
2022/06/13 13:48:13;;;;;;;6.53;1.50;;;;;;;;;;5023901;28;20398;-78
2022/06/13 13:50:43;;;;;;;4.20;1.13;;;;;;;;;;5021321;28;20446;-78
2022/06/13 13:53:10;;;;;;;3.20;1.23;;;;;;;;;;5027382;28;20103;-78
2022/06/13 13:55:39;;;;;;;5.68;1.30;;;;;;;;;;5024591;28;20276;-78
2022/06/13 13:58:26;;;;;;;7.55;2.00;;;;;;;;;;5027002;28;20756;-78
2022/06/13 14:01:01;;;;;;;9.80;1.33;;;;;;;;;;5013789;28;20044;-78
2022/06/13 14:03:30;;;;;;;4.20;1.23;;;;;;;;;;5021862;28;20066;-78
2022/06/13 14:06:06;;;;;;;3.97;1.00;;;;;;;;;;5021434;28;20104;-78
2022/06/13 14:08:37;;;;;;;5.47;1.65;;;;;;;;;;5018070;28;20033;-78
2022/06/13 14:11:05;;;;;;;8.00;1.33;;;;;;;;;;5027478;28;20030;-78
2022/06/13 14:13:34;;;;;;;4.85;1.40;;;;;;;;;;5021835;28;20537;-78
2022/06/13 14:16:14;;;;;;;4.32;1.42;;;;;;;;;;5024000;28;20041;-78
2022/06/13 14:18:46;;;;;;;4.13;1.20;;;;;;;;;;5022989;28;20092;-78
2022/06/13 14:21:13;;;;;;;5.57;1.35;;;;;;;;;;5023968;28;20041;-78
2022/06/13 14:23:47;;;;;;;3.65;1.20;;;;;;;;;;5030812;28;20033;-78
2022/06/13 14:26:29;;;;;;;3.42;1.20;;;;;;;;;;5026890;28;20061;-78
2022/06/13 14:28:56;;;;;;;5.63;1.10;;;;;;;;;;5023545;28;20036;-78
2022/06/13 14:31:22;;;;;;;5.20;1.38;;;;;;;;;;5031901;28;20037;-78
2022/06/13 14:36:49;;;;;;;6.22;1.13;;;;;;;;;;5016122;28;20048;-78
2022/06/13 14:39:36;;;;;;;4.47;1.10;;;;;;;;;;5031317;28;20036;-78
2022/06/13 14:42:13;;;;;;;4.63;1.27;;;;;;;;;;5026438;28;20033;-78
2022/06/13 14:44:58;;;;;;;3.55;1.15;;;;;;;;;;5030538;28;20080;-78
2022/06/13 14:47:36;;;;;;;5.20;1.20;;;;;;;;;;5028903;28;20033;-78
2022/06/13 14:50:02;;;;;;;5.68;1.55;;;;;;;;;;5031163;28;20049;-78
2022/06/13 14:52:29;;;;;;;4.97;1.10;;;;;;;;;;5031748;28;20037;-78
2022/06/13 14:55:04;;;;;;;7.15;1.20;;;;;;;;;;5022092;28;20029;-78
2022/06/13 14:57:30;;;;;;;6.05;1.13;;;;;;;;;;5030598;28;20040;-78
2022/06/13 15:00:15;;;;;;;4.57;1.35;;;;;;;;;;5033052;28;20033;-78
2022/06/13 15:02:56;;;;;;;7.50;1.50;;;;;;;;;;5029388;28;20631;-78
2022/06/13 15:05:22;;;;;;;;;;;;;;;;;;5015972;28;20138;-78
2022/06/13 15:08:00;;;;;;;4.20;0.98;;;;;;;;;;5033815;28;20625;-79
2022/06/13 15:10:34;;;;;;;4.35;1.27;;;;;;;;;;5025789;28;20049;-79
2022/06/13 15:13:01;;;;;;;3.90;1.15;;;;;;;;;;5028652;28;20068;-78
2022/06/13 15:15:32;;;;;;;4.80;1.15;;;;;;;;;;5029521;28;20079;-78
2022/06/13 15:17:58;;;;;;;8.35;1.92;;;;;;;;;;5030693;28;20033;-78
2022/06/13 15:20:29;;;;;;;4.80;1.30;;;;;;;;;;5024590;28;20034;-79
2022/06/13 15:23:04;;;;;;;5.50;1.13;;;;;;;;;;5020921;28;20076;-78
2022/06/13 15:25:44;;;;;;;3.97;1.02;;;;;;;;;;5021195;28;20032;-79
2022/06/13 15:28:14;;;;;;;6.40;1.45;;;;;;;;;;5020878;28;20030;-77
2022/06/13 15:30:45;;;;;;;6.33;1.33;;;;;;;;;;5024801;28;20508;-79
2022/06/13 15:33:13;;;;;;;6.33;1.27;;;;;;;;;;5025102;28;20033;-78
2022/06/13 15:35:45;;;;;;;4.30;1.25;;;;;;;;;;5029215;28;20654;-78
2022/06/13 15:38:17;;;;;;;5.15;1.13;;;;;;;;;;5024782;28;20064;-78